createdAt,value
2023-01-08T00:00:38.000Z,34.00
2023-01-08T00:03:27.219Z,38.80
2023-01-08T00:05:59.770Z,41.50
2023-01-08T00:08:28.840Z,39.00
2023-01-08T00:10:58.553Z,30.80
2023-01-08T00:13:28.040Z,31.50
2023-01-08T00:15:57.057Z,33.90
2023-01-08T00:18:26.787Z,31.20
2023-01-08T00:20:55.679Z,31.90
2023-01-08T00:23:24.646Z,31.20
2023-01-08T00:25:53.768Z,31.10
2023-01-08T00:28:22.942Z,31.20
2023-01-08T00:30:51.994Z,33.30
2023-01-08T00:33:21.029Z,31.20
2023-01-08T00:35:50.001Z,32.20
2023-01-08T00:38:18.907Z,31.50
2023-01-08T00:40:49.058Z,30.90
2023-01-08T00:43:18.006Z,30.60
2023-01-08T00:45:47.011Z,30.50
2023-01-08T00:48:16.056Z,31.20
2023-01-08T00:50:44.959Z,27.80
2023-01-08T00:53:13.928Z,30.00
2023-01-08T00:55:42.869Z,30.20
2023-01-08T00:58:12.554Z,29.80
2023-01-08T01:00:41.579Z,32.40
2023-01-08T01:03:10.555Z,31.50
2023-01-08T01:05:39.519Z,32.20
2023-01-08T01:08:08.478Z,36.00
2023-01-08T01:10:39.626Z,33.70
2023-01-08T01:13:08.593Z,33.20
2023-01-08T01:15:37.493Z,32.60
2023-01-08T01:18:06.479Z,32.40
2023-01-08T01:20:35.449Z,33.10
2023-01-08T01:23:05.533Z,36.50
2023-01-08T01:25:38.213Z,30.40
2023-01-08T01:28:07.162Z,29.70
2023-01-08T01:30:36.127Z,37.70
2023-01-08T01:33:05.125Z,32.80
2023-01-08T01:35:34.036Z,32.80
2023-01-08T01:38:02.984Z,33.60
2023-01-08T01:40:31.875Z,35.30
2023-01-08T01:43:00.791Z,35.60
2023-01-08T01:45:30.743Z,32.80
2023-01-08T01:48:02.328Z,32.10
2023-01-08T01:50:37.476Z,31.20
2023-01-08T01:53:10.743Z,32.20
2023-01-08T01:55:43.048Z,33.10
2023-01-08T01:58:13.957Z,31.30
2023-01-08T02:00:44.156Z,33.40
2023-01-08T02:03:15.314Z,33.00
2023-01-08T02:05:50.773Z,34.50
2023-01-08T02:08:28.552Z,34.70
2023-01-08T02:11:06.829Z,34.80
2023-01-08T02:13:39.747Z,36.10
2023-01-08T02:16:14.989Z,35.50
2023-01-08T02:18:48.664Z,38.20
2023-01-08T02:21:23.030Z,35.50
2023-01-08T02:24:02.439Z,36.20
2023-01-08T02:26:34.253Z,36.00
2023-01-08T02:29:07.109Z,36.90
2023-01-08T02:31:38.863Z,37.10
2023-01-08T02:34:09.194Z,35.00
2023-01-08T02:36:41.984Z,36.00
2023-01-08T02:39:21.700Z,34.10
2023-01-08T02:42:04.360Z,36.00
2023-01-08T02:44:42.428Z,36.70
2023-01-08T02:47:18.450Z,36.90
2023-01-08T02:49:52.290Z,37.20
2023-01-08T02:52:22.853Z,36.60
2023-01-08T02:54:52.319Z,34.00
2023-01-08T02:57:21.620Z,31.00
2023-01-08T02:59:51.977Z,32.90
2023-01-08T03:02:21.582Z,31.80
2023-01-08T03:04:57.919Z,31.20
2023-01-08T03:07:27.016Z,30.50
2023-01-08T03:09:55.985Z,34.50
2023-01-08T03:12:33.067Z,30.80
2023-01-08T03:15:07.453Z,33.30
2023-01-08T03:17:39.606Z,32.10
2023-01-08T03:20:14.311Z,35.10
2023-01-08T03:22:46.683Z,31.40
2023-01-08T03:25:18.707Z,32.50
2023-01-08T03:27:52.107Z,31.00
2023-01-08T03:30:23.236Z,33.30
2023-01-08T03:32:54.434Z,32.30
2023-01-08T03:35:25.815Z,31.90
2023-01-08T03:38:01.742Z,31.50
2023-01-08T03:40:35.202Z,34.40
2023-01-08T03:43:04.208Z,33.20
2023-01-08T03:45:34.009Z,33.30
2023-01-08T03:48:04.470Z,35.30
2023-01-08T03:50:34.138Z,34.40
2023-01-08T03:53:03.104Z,33.00
2023-01-08T03:55:32.017Z,31.00
2023-01-08T03:58:00.933Z,32.70
2023-01-08T04:00:30.155Z,30.30
2023-01-08T04:02:59.104Z,34.00
2023-01-08T04:05:28.377Z,44.70
2023-01-08T04:07:57.626Z,33.80
2023-01-08T04:10:26.950Z,31.70
2023-01-08T04:12:55.898Z,32.60
2023-01-08T04:15:24.822Z,35.00
2023-01-08T04:17:54.803Z,30.50
2023-01-08T04:20:23.692Z,40.30
2023-01-08T04:22:52.612Z,46.20
2023-01-08T04:25:21.559Z,31.00
2023-01-08T04:27:50.623Z,27.00
2023-01-08T04:30:19.486Z,23.90
2023-01-08T04:32:48.436Z,29.60
2023-01-08T04:35:17.506Z,28.90
2023-01-08T04:37:46.423Z,29.80
2023-01-08T04:40:15.700Z,30.80
2023-01-08T04:42:44.673Z,28.80
2023-01-08T04:45:13.672Z,27.70
2023-01-08T04:47:42.884Z,27.70
2023-01-08T04:50:12.259Z,27.70
2023-01-08T04:52:41.165Z,25.30
2023-01-08T04:55:10.408Z,26.00
2023-01-08T04:57:39.318Z,26.10
2023-01-08T05:00:10.001Z,25.10
2023-01-08T05:02:39.327Z,25.50
2023-01-08T05:05:09.239Z,25.60
2023-01-08T05:07:38.193Z,25.40
2023-01-08T05:10:09.960Z,25.00
2023-01-08T05:12:38.885Z,27.20
2023-01-08T05:15:10.195Z,26.00
2023-01-08T05:17:39.193Z,24.40
2023-01-08T05:20:09.926Z,24.40
2023-01-08T05:22:38.909Z,24.80
2023-01-08T05:25:09.289Z,24.90
2023-01-08T05:27:38.252Z,23.30
2023-01-08T05:30:09.883Z,23.70
2023-01-08T05:32:38.877Z,25.50
2023-01-08T05:35:09.618Z,25.40
2023-01-08T05:37:39.333Z,26.90
2023-01-08T05:40:10.269Z,38.50
2023-01-08T05:42:39.236Z,33.10
2023-01-08T05:45:09.697Z,41.50
2023-01-08T05:47:38.654Z,71.00
2023-01-08T05:50:09.014Z,26.90
2023-01-08T05:52:37.919Z,23.60
2023-01-08T05:55:08.067Z,21.00
2023-01-08T05:57:37.060Z,23.90
2023-01-08T06:00:09.329Z,24.40
2023-01-08T06:02:45.446Z,22.50
2023-01-08T06:05:14.673Z,21.10
2023-01-08T06:07:43.632Z,23.00
2023-01-08T06:10:12.512Z,23.60
2023-01-08T06:12:41.467Z,22.40
2023-01-08T06:15:12.695Z,22.90
2023-01-08T06:17:42.107Z,24.10
2023-01-08T06:20:12.147Z,21.00
2023-01-08T06:22:41.106Z,22.80
2023-01-08T06:25:10.868Z,20.90
2023-01-08T06:27:40.687Z,23.30
2023-01-08T06:30:10.792Z,22.60
2023-01-08T06:32:39.714Z,20.30
2023-01-08T06:35:09.744Z,23.20
2023-01-08T06:37:38.674Z,22.40
2023-01-08T06:40:09.838Z,21.40
2023-01-08T06:42:38.728Z,24.20
2023-01-08T06:45:09.688Z,25.70
2023-01-08T06:47:38.720Z,27.00
2023-01-08T06:50:08.876Z,25.80
2023-01-08T06:52:37.809Z,25.80
2023-01-08T06:55:08.711Z,25.60
2023-01-08T06:57:40.940Z,26.30
2023-01-08T07:00:12.055Z,25.80
2023-01-08T07:02:41.225Z,21.30
2023-01-08T07:05:10.794Z,23.80
2023-01-08T07:07:39.764Z,22.40
2023-01-08T07:10:09.681Z,23.60
2023-01-08T07:12:38.616Z,25.20
2023-01-08T07:15:09.421Z,22.70
2023-01-08T07:17:38.376Z,24.70
2023-01-08T07:20:09.899Z,24.40
2023-01-08T07:22:38.823Z,22.40
2023-01-08T07:25:09.668Z,31.10
2023-01-08T07:27:38.621Z,23.00
2023-01-08T07:30:21.020Z,23.20
2023-01-08T07:33:00.110Z,33.40
2023-01-08T07:35:29.171Z,34.10
2023-01-08T07:37:58.154Z,49.60
2023-01-08T07:40:27.093Z,59.30
2023-01-08T07:43:00.109Z,47.30
2023-01-08T07:45:29.433Z,60.90
2023-01-08T07:47:59.135Z,44.20
2023-01-08T07:50:28.292Z,47.40
2023-01-08T07:52:59.054Z,41.80
2023-01-08T07:55:29.886Z,66.00
2023-01-08T07:57:59.165Z,25.10
2023-01-08T08:00:28.483Z,26.60
2023-01-08T08:03:03.674Z,25.50
2023-01-08T08:05:34.059Z,24.70
2023-01-08T08:08:07.449Z,25.10
2023-01-08T08:10:36.366Z,20.80
2023-01-08T08:13:05.694Z,22.40
2023-01-08T08:15:36.272Z,21.20
2023-01-08T08:18:05.882Z,32.50
2023-01-08T08:20:35.156Z,21.40
2023-01-08T08:23:05.949Z,26.60
2023-01-08T08:25:35.242Z,22.90
2023-01-08T08:28:05.237Z,22.40
2023-01-08T08:30:35.998Z,22.80
2023-01-08T08:33:07.089Z,22.80
2023-01-08T08:35:36.581Z,31.90
2023-01-08T08:38:05.972Z,35.10
2023-01-08T08:40:35.018Z,22.70
2023-01-08T08:43:04.686Z,31.50
2023-01-08T08:45:33.798Z,25.10
2023-01-08T08:48:05.386Z,27.00
2023-01-08T08:50:35.094Z,26.10
2023-01-08T08:53:05.360Z,26.50
2023-01-08T08:55:34.971Z,25.50
2023-01-08T08:58:05.754Z,22.90
2023-01-08T09:00:34.644Z,21.90
2023-01-08T09:03:03.857Z,23.00
2023-01-08T09:05:36.400Z,26.30
2023-01-08T09:08:05.704Z,32.10
2023-01-08T09:10:36.310Z,27.60
2023-01-08T09:13:05.632Z,33.30
2023-01-08T09:15:35.743Z,25.80
2023-01-08T09:18:05.294Z,25.40
2023-01-08T09:20:34.259Z,38.20
2023-01-08T09:23:03.529Z,48.20
2023-01-08T09:25:32.519Z,61.00
2023-01-08T09:28:02.630Z,50.20
2023-01-08T09:30:32.425Z,59.10
2023-01-08T09:33:03.254Z,68.40
2023-01-08T09:35:33.158Z,34.90
2023-01-08T09:38:02.136Z,49.20
2023-01-08T09:40:35.473Z,33.00
2023-01-08T09:43:05.643Z,38.10
2023-01-08T09:45:38.553Z,39.20
2023-01-08T09:48:13.362Z,33.90
2023-01-08T09:50:42.278Z,31.40
2023-01-08T09:53:15.421Z,32.30
2023-01-08T09:55:46.550Z,26.80
2023-01-08T09:58:24.490Z,35.70
2023-01-08T10:00:54.219Z,42.80
2023-01-08T10:03:29.981Z,34.50
2023-01-08T10:05:58.902Z,28.70
2023-01-08T10:08:27.810Z,31.60
2023-01-08T10:10:56.816Z,26.90
2023-01-08T10:13:25.848Z,30.10
2023-01-08T10:15:54.833Z,34.20
2023-01-08T10:18:25.989Z,33.60
2023-01-08T10:20:54.935Z,33.50
2023-01-08T10:23:23.906Z,37.40
2023-01-08T10:25:55.430Z,32.70
2023-01-08T10:28:26.510Z,29.70
2023-01-08T10:31:03.718Z,38.80
2023-01-08T10:33:40.676Z,43.80
2023-01-08T10:36:13.893Z,49.80
2023-01-08T10:38:49.505Z,39.50
2023-01-08T10:41:19.713Z,43.60
2023-01-08T10:43:53.351Z,42.20
2023-01-08T10:46:24.884Z,31.40
2023-01-08T10:48:56.720Z,33.00
2023-01-08T10:51:27.710Z,30.90
2023-01-08T10:53:58.986Z,32.80
2023-01-08T10:56:30.202Z,32.00
2023-01-08T10:58:59.833Z,27.20
2023-01-08T11:01:31.359Z,23.40
2023-01-08T11:04:02.713Z,25.50
2023-01-08T11:06:36.730Z,21.60
2023-01-08T11:09:19.875Z,28.20
2023-01-08T11:11:49.327Z,27.40
2023-01-08T11:14:22.344Z,31.00
2023-01-08T11:16:51.479Z,24.20
2023-01-08T11:19:23.593Z,28.80
2023-01-08T11:21:57.519Z,27.80
2023-01-08T11:24:30.071Z,24.30
2023-01-08T11:27:05.640Z,29.90
2023-01-08T11:29:43.899Z,27.80
2023-01-08T11:32:41.757Z,40.10
2023-01-08T11:35:17.248Z,37.30
2023-01-08T11:37:51.643Z,43.90
2023-01-08T11:40:28.934Z,46.40
2023-01-08T11:43:11.639Z,49.60
2023-01-08T11:46:05.728Z,50.80
2023-01-08T11:49:01.942Z,37.30
2023-01-08T11:51:41.089Z,48.00
2023-01-08T11:54:24.636Z,36.20
2023-01-08T11:57:14.097Z,33.20
2023-01-08T11:59:58.479Z,49.90
2023-01-08T12:02:40.963Z,37.30
2023-01-08T12:05:25.542Z,36.70
2023-01-08T12:08:02.427Z,43.70
2023-01-08T12:10:41.660Z,35.50
2023-01-08T12:13:24.581Z,31.90
2023-01-08T12:16:06.771Z,36.70
2023-01-08T12:18:52.930Z,31.20
2023-01-08T12:21:31.191Z,29.30
2023-01-08T12:24:55.662Z,38.00
2023-01-08T12:27:55.979Z,33.90
2023-01-08T12:30:40.525Z,34.30
2023-01-08T12:33:19.709Z,33.20
2023-01-08T12:35:56.316Z,31.40
2023-01-08T12:38:32.361Z,31.60
2023-01-08T12:41:08.397Z,32.40
2023-01-08T12:43:51.854Z,25.30
2023-01-08T12:46:26.326Z,27.50
2023-01-08T12:48:59.703Z,26.20
2023-01-08T12:51:40.393Z,29.00
2023-01-08T12:54:21.927Z,32.20
2023-01-08T12:57:02.182Z,34.90
2023-01-08T12:59:43.981Z,31.40
2023-01-08T13:02:36.037Z,47.30
2023-01-08T13:05:30.925Z,41.40
2023-01-08T13:08:07.193Z,69.10
2023-01-08T13:10:49.756Z,141.10
2023-01-08T13:13:29.948Z,120.90
2023-01-08T13:16:25.564Z,86.00
2023-01-08T13:19:01.018Z,47.30
2023-01-08T13:21:36.109Z,53.30
2023-01-08T13:24:30.672Z,48.10
2023-01-08T13:27:29.180Z,40.60
2023-01-08T13:30:02.230Z,54.60
2023-01-08T13:32:47.332Z,40.10
2023-01-08T13:35:27.376Z,38.00
2023-01-08T13:38:17.560Z,37.40
2023-01-08T13:40:57.649Z,30.90
2023-01-08T13:43:33.107Z,30.60
2023-01-08T13:46:18.221Z,25.90
2023-01-08T13:48:59.054Z,28.50
2023-01-08T13:51:35.348Z,34.00
2023-01-08T13:54:20.946Z,43.90
2023-01-08T13:56:57.037Z,37.30
2023-01-08T13:59:39.177Z,40.30
2023-01-08T14:02:31.208Z,42.50
2023-01-08T14:05:12.810Z,37.60
2023-01-08T14:07:45.405Z,36.10
2023-01-08T14:10:19.319Z,28.10
2023-01-08T14:12:52.699Z,27.10
2023-01-08T14:15:27.830Z,26.50
2023-01-08T14:18:02.583Z,40.20
2023-01-08T14:20:37.089Z,24.30
2023-01-08T14:23:19.464Z,32.00
2023-01-08T14:25:52.358Z,29.30
2023-01-08T14:28:25.381Z,32.50
2023-01-08T14:30:59.195Z,27.70
2023-01-08T14:33:34.819Z,24.10
2023-01-08T14:36:10.015Z,25.50
2023-01-08T14:38:43.021Z,23.30
2023-01-08T14:41:16.470Z,27.60
2023-01-08T14:43:51.047Z,23.70
2023-01-08T14:46:27.392Z,26.10
2023-01-08T14:48:59.988Z,25.60
2023-01-08T14:51:33.460Z,26.50
2023-01-08T14:54:08.654Z,25.50
2023-01-08T14:56:40.924Z,30.50
2023-01-08T14:59:19.470Z,28.40
2023-01-08T15:01:56.710Z,25.90
2023-01-08T15:04:30.973Z,32.60
2023-01-08T15:07:17.431Z,25.60
2023-01-08T15:09:58.664Z,28.70
2023-01-08T15:12:32.534Z,27.40
2023-01-08T15:15:23.728Z,24.00
2023-01-08T15:17:56.509Z,22.20
2023-01-08T15:20:32.520Z,26.50
2023-01-08T15:23:04.968Z,24.50
2023-01-08T15:25:37.141Z,25.70
2023-01-08T15:28:15.765Z,23.30
2023-01-08T15:30:49.462Z,28.10
2023-01-08T15:33:24.518Z,23.20
2023-01-08T15:35:56.813Z,22.80
2023-01-08T15:38:29.008Z,21.30
2023-01-08T15:41:01.309Z,19.80
2023-01-08T15:43:33.498Z,24.20
2023-01-08T15:46:06.005Z,22.00
2023-01-08T15:48:38.245Z,18.80
2023-01-08T15:51:12.105Z,27.20
2023-01-08T15:53:44.303Z,26.00
2023-01-08T15:56:16.491Z,58.80
2023-01-08T15:58:48.630Z,32.20
2023-01-08T16:01:21.098Z,31.30
2023-01-08T16:03:53.516Z,31.10
2023-01-08T16:06:25.732Z,35.40
2023-01-08T16:09:00.514Z,23.50
2023-01-08T16:11:32.753Z,47.60
2023-01-08T16:14:04.945Z,58.10
2023-01-08T16:16:37.328Z,45.70
2023-01-08T16:19:09.612Z,44.00
2023-01-08T16:21:46.944Z,35.70
2023-01-08T16:24:19.172Z,45.00
2023-01-08T16:26:51.580Z,27.20
2023-01-08T16:29:23.902Z,23.40
2023-01-08T16:31:56.884Z,27.60
2023-01-08T16:34:29.349Z,54.40
2023-01-08T16:37:01.540Z,33.50
2023-01-08T16:39:33.927Z,37.10
2023-01-08T16:42:06.349Z,31.50
2023-01-08T16:44:38.897Z,37.60
2023-01-08T16:47:11.083Z,32.80
2023-01-08T16:49:43.267Z,23.50
2023-01-08T16:52:15.633Z,31.40
2023-01-08T16:54:48.807Z,57.10
2023-01-08T16:57:21.124Z,31.80
2023-01-08T16:59:53.348Z,80.20
2023-01-08T17:02:26.063Z,63.80
2023-01-08T17:04:58.343Z,87.50
2023-01-08T17:07:30.590Z,44.00
2023-01-08T17:10:02.780Z,45.00
2023-01-08T17:12:34.951Z,31.40
2023-01-08T17:15:08.835Z,24.30
2023-01-08T17:17:41.054Z,40.30
2023-01-08T17:20:14.550Z,33.80
2023-01-08T17:22:46.800Z,28.80
2023-01-08T17:25:19.377Z,30.00
2023-01-08T17:27:53.924Z,26.40
2023-01-08T17:30:26.429Z,37.10
2023-01-08T17:32:58.748Z,35.30
2023-01-08T17:35:31.101Z,31.40
2023-01-08T17:38:03.253Z,27.60
2023-01-08T17:40:35.683Z,33.70
2023-01-08T17:46:06.604Z,52.70
2023-01-08T17:51:10.293Z,39.30
2023-01-08T17:53:42.490Z,34.50
2023-01-08T17:56:14.681Z,61.90
2023-01-08T17:58:49.620Z,55.80
2023-01-08T18:01:22.280Z,40.20
2023-01-08T18:03:55.052Z,40.50
2023-01-08T18:06:27.329Z,45.60
2023-01-08T18:09:00.439Z,54.10
2023-01-08T18:11:33.322Z,46.90
2023-01-08T18:14:05.848Z,51.30
2023-01-08T18:16:38.519Z,34.20
2023-01-08T18:19:12.521Z,46.70
2023-01-08T18:21:45.514Z,44.10
2023-01-08T18:24:18.318Z,36.40
2023-01-08T18:26:51.477Z,36.30
2023-01-08T18:29:23.854Z,67.10
2023-01-08T18:31:56.076Z,64.80
2023-01-08T18:34:28.567Z,78.80
2023-01-08T18:37:00.768Z,59.90
2023-01-08T18:39:33.408Z,48.80
2023-01-08T18:42:23.531Z,60.10
2023-01-08T18:44:56.120Z,51.70
2023-01-08T18:47:29.897Z,38.40
2023-01-08T18:50:03.522Z,37.00
2023-01-08T18:52:36.200Z,35.50
2023-01-08T18:55:09.613Z,45.60
2023-01-08T18:57:41.989Z,36.10
2023-01-08T19:00:18.194Z,32.10
2023-01-08T19:02:52.133Z,33.50
2023-01-08T19:05:25.137Z,36.50
2023-01-08T19:07:57.251Z,41.60
2023-01-08T19:10:29.497Z,53.80
2023-01-08T19:13:01.610Z,38.80
2023-01-08T19:15:34.320Z,34.80
2023-01-08T19:18:08.995Z,37.60
2023-01-08T19:20:46.347Z,37.50
2023-01-08T19:23:18.680Z,53.50
2023-01-08T19:25:50.851Z,45.00
2023-01-08T19:28:23.170Z,66.20
2023-01-08T19:30:59.408Z,55.60
2023-01-08T19:33:32.014Z,75.10
2023-01-08T19:36:11.111Z,81.90
2023-01-08T19:38:44.024Z,50.70
2023-01-08T19:41:34.024Z,42.60
2023-01-08T19:44:08.644Z,54.80
2023-01-08T19:46:40.841Z,40.90
2023-01-08T19:49:13.630Z,38.70
2023-01-08T19:51:45.837Z,39.70
2023-01-08T19:54:20.295Z,39.30
2023-01-08T19:56:52.568Z,37.80
2023-01-08T19:59:25.052Z,45.80
2023-01-08T20:01:57.314Z,39.20
2023-01-08T20:04:29.855Z,49.00
2023-01-08T20:07:02.274Z,60.40
2023-01-08T20:09:35.110Z,40.90
2023-01-08T20:12:08.844Z,38.20
2023-01-08T20:14:41.039Z,37.60
2023-01-08T20:17:13.435Z,39.10
2023-01-08T20:19:45.569Z,35.60
2023-01-08T20:22:17.844Z,39.40
2023-01-08T20:24:50.320Z,36.10
2023-01-08T20:27:22.599Z,38.80
2023-01-08T20:29:54.912Z,41.20
2023-01-08T20:32:27.031Z,39.40
2023-01-08T20:34:59.227Z,35.00
2023-01-08T20:37:31.397Z,40.50
2023-01-08T20:40:03.618Z,34.90
2023-01-08T20:42:36.241Z,32.30
2023-01-08T20:45:10.129Z,33.60
2023-01-08T20:47:42.570Z,35.90
2023-01-08T20:50:20.430Z,36.10
2023-01-08T20:52:52.831Z,36.50
2023-01-08T20:55:25.076Z,41.20
2023-01-08T20:57:57.315Z,37.90
2023-01-08T21:00:29.588Z,60.50
2023-01-08T21:03:01.980Z,49.80
2023-01-08T21:05:36.250Z,53.00
2023-01-08T21:08:10.520Z,92.20
2023-01-08T21:10:42.894Z,66.50
2023-01-08T21:13:15.037Z,51.90
2023-01-08T21:15:47.178Z,80.90
2023-01-08T21:18:19.498Z,66.70
2023-01-08T21:20:51.719Z,66.70
2023-01-08T21:23:23.963Z,201.90
2023-01-08T21:25:59.141Z,57.20
2023-01-08T21:28:31.601Z,89.70
2023-01-08T21:31:10.150Z,60.70
2023-01-08T21:33:42.959Z,50.50
2023-01-08T21:36:17.578Z,83.30
2023-01-08T21:38:50.524Z,45.10
2023-01-08T21:41:42.731Z,63.30
2023-01-08T21:44:34.509Z,97.60
2023-01-08T21:47:08.475Z,92.50
2023-01-08T21:49:40.953Z,42.30
2023-01-08T21:52:30.829Z,45.70
2023-01-08T21:55:03.297Z,42.10
2023-01-08T21:57:40.767Z,53.90
2023-01-08T22:00:16.188Z,43.30
2023-01-08T22:02:48.412Z,35.10
2023-01-08T22:05:20.885Z,33.10
2023-01-08T22:07:53.101Z,33.60
2023-01-08T22:10:25.296Z,41.50
2023-01-08T22:12:57.501Z,41.70
2023-01-08T22:15:29.762Z,36.70
2023-01-08T22:18:01.887Z,50.10
2023-01-08T22:20:34.073Z,42.80
2023-01-08T22:23:06.335Z,38.10
2023-01-08T22:25:42.025Z,123.80
2023-01-08T22:28:14.598Z,125.60
2023-01-08T22:30:46.790Z,65.80
2023-01-08T22:33:18.935Z,45.30
2023-01-08T22:35:51.202Z,44.40
2023-01-08T22:38:23.451Z,49.00
2023-01-08T22:40:55.750Z,42.40
2023-01-08T22:43:28.206Z,36.70
2023-01-08T22:46:01.506Z,36.80
2023-01-08T22:48:33.819Z,35.00
2023-01-08T22:51:07.065Z,41.70
2023-01-08T22:53:39.836Z,34.90
2023-01-08T22:56:13.210Z,40.30
2023-01-08T22:58:46.532Z,35.60
2023-01-08T23:01:20.904Z,36.10
2023-01-08T23:03:54.665Z,36.40
2023-01-08T23:06:28.965Z,32.60
2023-01-08T23:09:01.612Z,38.90
2023-01-08T23:11:34.529Z,44.10
2023-01-08T23:14:06.732Z,38.10
2023-01-08T23:16:39.146Z,38.90
2023-01-08T23:19:11.979Z,33.40
2023-01-08T23:21:44.347Z,43.60
2023-01-08T23:24:17.012Z,37.90
2023-01-08T23:26:49.262Z,38.70
2023-01-08T23:29:21.519Z,51.70
2023-01-08T23:31:53.756Z,42.20
2023-01-08T23:34:26.157Z,58.50
2023-01-08T23:36:58.381Z,56.80
2023-01-08T23:39:30.564Z,56.30
2023-01-08T23:42:02.786Z,49.20
2023-01-08T23:44:34.928Z,42.30
2023-01-08T23:47:07.734Z,40.90
2023-01-08T23:49:40.134Z,40.40
2023-01-08T23:52:12.405Z,41.20
2023-01-08T23:54:44.574Z,35.40
2023-01-08T23:57:16.790Z,36.60
2023-01-08T23:59:49.058Z,34.40
